Elgin, Iowa
Current Conditions -  °F | °C
As of 10:55 PM on Saturday 25 Oct 2014 (Local Time) from KDEH Reporting Station
Clear Clear  
Wind Chill: 48°   Ceiling: Unl
Heat Index: 48°   Visibility: 10mi
Dew Point: 30°   Wind: 3mph
Humidity: 50%   Direction: 300°WNW
Pressure: 30.04"   Gusts: NA
Location:  42.96°N, 91.63°W
Report Text: KDEH 260355Z AUTO 30003KT 10SM CLR 09/M01 A3004 RMK AO2
Loading
Personal Weather Stations






























Interactive Weather Map
Tropical Storm Tracking
New forecast layout! Learn more

10-Day Weather Forecast

Advertisements
Track Severe Weather on mobile